createdAt,value
2023-05-16T00:05:57.974Z,1.93
2023-05-16T00:21:00.452Z,1.50
2023-05-16T00:36:05.743Z,4.33
2023-05-16T00:51:09.300Z,5.07
2023-05-16T01:06:12.515Z,4.43
2023-05-16T01:21:31.928Z,8.37
2023-05-16T01:37:12.948Z,5.97
2023-05-16T01:52:26.941Z,7.70
2023-05-16T02:07:30.484Z,9.43
2023-05-16T02:22:34.100Z,9.90
2023-05-16T02:37:36.895Z,7.83
2023-05-16T02:52:39.238Z,8.40
2023-05-16T03:07:41.596Z,9.70
2023-05-16T03:22:45.133Z,8.83
2023-05-16T03:37:47.600Z,10.50
2023-05-16T03:52:52.935Z,10.27
2023-05-16T04:07:55.339Z,11.73
2023-05-16T04:22:57.773Z,8.90
2023-05-16T04:38:00.180Z,6.70
2023-05-16T04:53:02.559Z,5.57
2023-05-16T05:08:05.154Z,6.30
2023-05-16T05:23:07.709Z,7.77
2023-05-16T05:38:10.266Z,7.93
2023-05-16T05:53:13.012Z,9.33
2023-05-16T06:08:17.266Z,7.70
2023-05-16T06:23:22.187Z,12.83
2023-05-16T06:38:24.735Z,6.13
2023-05-16T06:53:28.993Z,11.60
2023-05-16T07:08:32.803Z,9.23
2023-05-16T07:23:35.330Z,7.43
2023-05-16T07:38:37.973Z,5.63
2023-05-16T07:53:41.123Z,6.83
2023-05-16T08:08:50.571Z,8.60
2023-05-16T08:23:53.566Z,7.53
2023-05-16T08:38:56.005Z,5.97
2023-05-16T08:54:03.313Z,5.30
2023-05-16T09:09:08.133Z,4.27
2023-05-16T09:24:10.870Z,6.77
2023-05-16T09:39:15.767Z,6.70
2023-05-16T09:54:33.638Z,4.13
2023-05-16T10:09:37.034Z,4.77
2023-05-16T10:25:25.866Z,2.23
2023-05-16T10:40:30.775Z,5.17
2023-05-16T10:55:33.198Z,2.43
2023-05-16T11:10:35.781Z,4.03
2023-05-16T11:25:41.048Z,3.47
2023-05-16T11:40:44.928Z,4.77
2023-05-16T11:55:54.795Z,4.70
2023-05-16T12:10:58.670Z,3.90
2023-05-16T12:26:07.837Z,3.53
2023-05-16T12:41:10.541Z,2.97
2023-05-16T12:56:14.489Z,2.30
2023-05-16T13:11:17.582Z,3.63
2023-05-16T13:26:20.142Z,2.23
2023-05-16T13:41:22.596Z,3.90
2023-05-16T13:56:26.660Z,2.60
2023-05-16T14:11:29.690Z,3.87
2023-05-16T14:26:32.339Z,3.53
2023-05-16T14:41:34.715Z,2.30
2023-05-16T14:56:37.132Z,4.80
2023-05-16T15:11:39.617Z,3.13
2023-05-16T15:26:43.688Z,4.10
2023-05-16T15:42:08.651Z,3.97
2023-05-16T15:57:08.547Z,3.63
2023-05-16T16:12:11.720Z,4.00
2023-05-16T16:27:15.219Z,3.50
2023-05-16T16:42:17.676Z,3.77
2023-05-16T16:57:20.293Z,4.97
2023-05-16T17:12:22.952Z,3.27
2023-05-16T17:27:26.832Z,3.13
2023-05-16T17:42:29.157Z,4.40
2023-05-16T17:57:32.746Z,4.73
2023-05-16T18:12:37.943Z,4.07
2023-05-16T18:27:41.209Z,9.07
2023-05-16T18:42:44.337Z,2.97
2023-05-16T18:57:47.148Z,3.37
2023-05-16T19:12:49.635Z,4.40
2023-05-16T19:27:52.704Z,3.93
2023-05-16T19:42:55.014Z,4.57
2023-05-16T19:57:57.971Z,2.40
2023-05-16T20:13:00.813Z,4.30
2023-05-16T20:28:04.072Z,4.20
2023-05-16T20:43:06.867Z,4.47
2023-05-16T20:58:09.261Z,3.43
2023-05-16T21:13:11.802Z,4.30
2023-05-16T21:28:14.207Z,7.23
2023-05-16T21:43:16.875Z,3.80
2023-05-16T21:58:19.237Z,3.20
2023-05-16T22:13:21.740Z,6.37
2023-05-16T22:28:24.470Z,4.50
2023-05-16T22:43:26.985Z,4.80
2023-05-16T22:58:30.098Z,4.00
2023-05-16T23:13:32.533Z,3.03
2023-05-16T23:28:35.712Z,3.23
2023-05-16T23:43:38.128Z,3.63
2023-05-16T23:58:40.669Z,3.77
